Fortune Wing — VRHW2 — position and weather

sailwx.info

Track history (hours):
 
Tides and Currents Weather Stations Pressure Air Temp Water Temp Dewpoint Dewpoint Depression Visibility Wind Speed Wind Dir Waves Ship Positions

Fortune Wing

Last reported at 2014-Jul-29 02:30 UTC. Time now 2014-Sep-23 22:28 UTC.
Position N 25°22' W 117°59'.
Warning: this ship's position is 56 days out of date.

Length 190 m; draft 10 m.

Type: Cargo ship. MMSI: 477389500.

Date/timePositionNaut miles runAvg speedWind from/ knotsBaromVisibWave heightAir tempDewpointWater temp
2014-Jul-29 02:30N 25°22' W 117°59'1312.4
2014-Jul-29 01:26N 25°32' W 118°09'1612.6
2014-Jul-29 00:08N 25°43' W 118°22'8812.9
2014-Jul-28 17:22N 26°44' W 119°32'5013.3
2014-Jul-28 13:34N 27°19' W 120°13'1313.4
2014-Jul-28 12:33N 27°28' W 120°24'1313.3
2014-Jul-28 11:34N 27°38' W 120°34'1313.3
2014-Jul-28 10:34N 27°47' W 120°44'1413.2
2014-Jul-28 09:32N 27°57' W 120°55'1313.0
2014-Jul-28 08:32N 28°06' W 121°06'2713.0
2014-Jul-28 06:25N 28°25' W 121°29'1313.1
2014-Jul-28 05:26N 28°34' W 121°39'1513.0
2014-Jul-28 04:17N 28°44' W 121°51'913.0
2014-Jul-28 03:34N 28°51' W 121°59'1313.0
2014-Jul-28 02:32N 29°00' W 122°09'1313.1
2014-Jul-28 01:34N 29°09' W 122°20'2813.2
2014-Jul-27 23:25N 29°29' W 122°43'2413.1
2014-Jul-27 21:33N 29°46' W 123°03'1313.0
2014-Jul-27 20:34N 29°55' W 123°14'1413.2
2014-Jul-27 19:28N 30°05' W 123°26'1513.1
2014-Jul-27 18:21N 30°15' W 123°38'1213.0
2014-Jul-27 17:24N 30°24' W 123°48'1613.1
2014-Jul-27 16:09N 30°36' W 124°02'813.2
2014-Jul-27 15:31N 30°41' W 124°09'1413.3
2014-Jul-27 14:30N 30°51' W 124°20'1313.2
2014-Jul-27 13:32N 30°60' W 124°31'1313.2
2014-Jul-27 12:33N 31°09' W 124°42'1313.4
2014-Jul-27 11:34N 31°18' W 124°53'1413.4
2014-Jul-27 10:33N 31°27' W 125°05'2913.3
2014-Jul-27 08:20N 31°48' W 125°29'2913.0
2014-Jul-27 06:05N 32°08' W 125°54'912.9
2014-Jul-27 05:24N 32°14' W 126°01'1612.8
2014-Jul-27 04:12N 32°25' W 126°14'812.8
2014-Jul-27 03:34N 32°31' W 126°21'1312.8
2014-Jul-27 02:34N 32°40' W 126°32'1512.8
2014-Jul-27 01:25N 32°50' W 126°44'1112.9
2014-Jul-27 00:34N 32°58' W 126°53'1413.1
2014-Jul-26 23:28N 33°08' W 127°06'5713.4
2014-Jul-26 19:15N 33°47' W 127°55'1213.5
2014-Jul-26 18:21N 33°56' W 128°05'1013.2
2014-Jul-26 17:34N 34°03' W 128°14'1313.2
2014-Jul-26 16:34N 34°12' W 128°26'1413.3
2014-Jul-26 15:30N 34°22' W 128°38'1313.4
2014-Jul-26 14:31N 34°31' W 128°49'1513.3
2014-Jul-26 13:23N 34°42' W 129°02'1313.4
2014-Jul-26 12:26N 34°51' W 129°13'10012.7
2014-Jul-26 04:33N 35°54' W 130°49'  
Track history (hours):
 
Tides and Currents Weather Stations Pressure Air Temp Water Temp Dewpoint Dewpoint Depression Visibility Wind Speed Wind Dir Waves Ship Positions

Fortune Wing

Last reported at 2014-Jul-29 02:30 UTC. Time now 2014-Sep-23 22:28 UTC.
Position N 25°22' W 117°59'.
Warning: this ship's position is 56 days out of date.

Length 190 m; draft 10 m.

Type: Cargo ship. MMSI: 477389500.

Date/timePositionNaut miles runAvg speedWind from/ knotsBaromVisibWave heightAir tempDewpointWater temp
2014-Jul-29 02:30N 25°22' W 117°59'1312.4
2014-Jul-29 01:26N 25°32' W 118°09'1612.6
2014-Jul-29 00:08N 25°43' W 118°22'8812.9
2014-Jul-28 17:22N 26°44' W 119°32'5013.3
2014-Jul-28 13:34N 27°19' W 120°13'1313.4
2014-Jul-28 12:33N 27°28' W 120°24'1313.3
2014-Jul-28 11:34N 27°38' W 120°34'1313.3
2014-Jul-28 10:34N 27°47' W 120°44'1413.2
2014-Jul-28 09:32N 27°57' W 120°55'1313.0
2014-Jul-28 08:32N 28°06' W 121°06'2713.0
2014-Jul-28 06:25N 28°25' W 121°29'1313.1
2014-Jul-28 05:26N 28°34' W 121°39'1513.0
2014-Jul-28 04:17N 28°44' W 121°51'913.0
2014-Jul-28 03:34N 28°51' W 121°59'1313.0
2014-Jul-28 02:32N 29°00' W 122°09'1313.1
2014-Jul-28 01:34N 29°09' W 122°20'2813.2
2014-Jul-27 23:25N 29°29' W 122°43'2413.1
2014-Jul-27 21:33N 29°46' W 123°03'1313.0
2014-Jul-27 20:34N 29°55' W 123°14'1413.2
2014-Jul-27 19:28N 30°05' W 123°26'1513.1
2014-Jul-27 18:21N 30°15' W 123°38'1213.0
2014-Jul-27 17:24N 30°24' W 123°48'1613.1
2014-Jul-27 16:09N 30°36' W 124°02'813.2
2014-Jul-27 15:31N 30°41' W 124°09'1413.3
2014-Jul-27 14:30N 30°51' W 124°20'1313.2
2014-Jul-27 13:32N 30°60' W 124°31'1313.2
2014-Jul-27 12:33N 31°09' W 124°42'1313.4
2014-Jul-27 11:34N 31°18' W 124°53'1413.4
2014-Jul-27 10:33N 31°27' W 125°05'2913.3
2014-Jul-27 08:20N 31°48' W 125°29'2913.0
2014-Jul-27 06:05N 32°08' W 125°54'912.9
2014-Jul-27 05:24N 32°14' W 126°01'1612.8
2014-Jul-27 04:12N 32°25' W 126°14'812.8
2014-Jul-27 03:34N 32°31' W 126°21'1312.8
2014-Jul-27 02:34N 32°40' W 126°32'1512.8
2014-Jul-27 01:25N 32°50' W 126°44'1112.9
2014-Jul-27 00:34N 32°58' W 126°53'1413.1
2014-Jul-26 23:28N 33°08' W 127°06'5713.4
2014-Jul-26 19:15N 33°47' W 127°55'1213.5
2014-Jul-26 18:21N 33°56' W 128°05'1013.2
2014-Jul-26 17:34N 34°03' W 128°14'1313.2
2014-Jul-26 16:34N 34°12' W 128°26'1413.3
2014-Jul-26 15:30N 34°22' W 128°38'1313.4
2014-Jul-26 14:31N 34°31' W 128°49'1513.3
2014-Jul-26 13:23N 34°42' W 129°02'1313.4
2014-Jul-26 12:26N 34°51' W 129°13'10012.7
2014-Jul-26 04:33N 35°54' W 130°49'  

Dump ship's entire track history